Time;durP1;ratioP1;P1;durP2;ratioP2;P2;SDS_P1;SDS_P2;PMS_P1;PMS_P2;Temp;Humidity;BMP_temperature;BMP_pressure;BME280_temperature;BME280_humidity;BME280_pressure;Samples;Min_cycle;Max_cycle;Signal;HPM_P1;HPM_P2
2023/10/16 06:14:11;;;;;;;2.83;2.20;;;;;;;;;;10453224;28;20018;-86
2023/10/16 06:19:17;;;;;;;4.55;3.33;;;;;;;;;;10404195;28;20032;-85
2023/10/16 06:24:25;;;;;;;3.33;2.63;;;;;;;;;;10395260;28;20026;-85
2023/10/16 06:29:40;;;;;;;4.60;2.75;;;;;;;;;;10397060;28;20045;-86
2023/10/16 06:34:42;;;;;;;4.95;2.88;;;;;;;;;;10396327;28;20053;-85
2023/10/16 06:39:47;;;;;;;4.15;3.13;;;;;;;;;;10396690;28;20114;-85
2023/10/16 06:44:54;;;;;;;7.32;3.60;;;;;;;;;;10397243;28;20087;-85
2023/10/16 06:49:56;;;;;;;3.95;2.55;;;;;;;;;;10396235;28;20038;-85
2023/10/16 06:54:57;;;;;;;3.30;2.45;;;;;;;;;;10389382;28;20030;-85
2023/10/16 06:59:59;;;;;;;5.50;3.40;;;;;;;;;;10373733;28;20484;-86
2023/10/16 07:05:05;;;;;;;3.72;2.60;;;;;;;;;;10374376;28;20028;-85
2023/10/16 07:10:13;;;;;;;4.20;3.00;;;;;;;;;;10378678;28;20141;-86
2023/10/16 07:15:16;;;;;;;5.07;3.13;;;;;;;;;;10374809;28;20033;-83
2023/10/16 07:20:29;;;;;;;6.53;4.45;;;;;;;;;;10374643;28;20070;-83
2023/10/16 07:25:54;;;;;;;7.85;4.75;;;;;;;;;;10394742;28;20442;-83
2023/10/16 07:31:10;;;;;;;8.50;5.60;;;;;;;;;;10374749;28;20382;-83
2023/10/16 07:36:11;;;;;;;10.38;7.65;;;;;;;;;;10389768;28;20018;-83
2023/10/16 07:41:18;;;;;;;;;;;;;;;;;;10374922;28;20556;-82
2023/10/16 07:46:29;;;;;;;6.28;4.45;;;;;;;;;;10374501;28;19905;-82
2023/10/16 07:51:30;;;;;;;;;;;;;;;;;;10371051;28;20030;-81
2023/10/16 07:56:32;;;;;;;7.65;5.88;;;;;;;;;;10369357;28;20292;-82
2023/10/16 08:01:45;;;;;;;10.30;8.18;;;;;;;;;;10372776;28;20037;-81
2023/10/16 08:06:52;;;;;;;10.23;7.18;;;;;;;;;;10368486;28;20054;-81
2023/10/16 08:11:57;;;;;;;11.98;8.70;;;;;;;;;;10369906;28;20052;-81
2023/10/16 08:17:04;;;;;;;7.60;4.45;;;;;;;;;;10368817;28;20053;-81
2023/10/16 08:22:07;;;;;;;9.40;6.78;;;;;;;;;;10369513;28;20022;-81
2023/10/16 08:27:15;;;;;;;6.57;5.20;;;;;;;;;;10369217;28;20097;-81
2023/10/16 08:37:40;;;;;;;12.65;9.02;;;;;;;;;;10389629;28;20478;-82
2023/10/16 08:42:42;;;;;;;12.00;7.43;;;;;;;;;;10372074;28;20030;-82
2023/10/16 08:47:46;;;;;;;13.40;8.00;;;;;;;;;;10380003;28;20041;-82
2023/10/16 08:52:58;;;;;;;11.10;6.57;;;;;;;;;;10378162;28;20045;-80
2023/10/16 08:58:03;;;;;;;6.25;4.53;;;;;;;;;;10375392;28;20057;-81
2023/10/16 09:03:06;;;;;;;10.00;6.75;;;;;;;;;;10368007;28;20025;-81
2023/10/16 09:08:08;;;;;;;7.72;4.22;;;;;;;;;;10368759;28;20061;-80
2023/10/16 09:13:19;;;;;;;6.57;4.82;;;;;;;;;;10367921;28;20026;-81
2023/10/16 09:18:22;;;;;;;12.68;9.13;;;;;;;;;;10367901;28;20044;-81
2023/10/16 09:23:23;;;;;;;7.47;4.82;;;;;;;;;;10361503;28;20026;-81
2023/10/16 09:28:24;;;;;;;6.40;4.57;;;;;;;;;;10361543;28;20030;-81
2023/10/16 09:33:25;;;;;;;8.32;5.35;;;;;;;;;;10364926;28;20034;-81
2023/10/16 09:38:33;;;;;;;15.50;9.48;;;;;;;;;;10364155;28;20032;-81
2023/10/16 09:43:34;;;;;;;7.47;5.68;;;;;;;;;;10365755;28;20056;-81
2023/10/16 09:48:36;;;;;;;6.85;4.60;;;;;;;;;;10367902;28;20030;-82
2023/10/16 09:53:37;;;;;;;7.78;4.88;;;;;;;;;;10369796;28;20030;-82
2023/10/16 09:58:40;;;;;;;6.93;4.00;;;;;;;;;;10370081;28;20041;-82
2023/10/16 10:03:42;;;;;;;9.43;7.15;;;;;;;;;;10375594;28;20056;-83
2023/10/16 10:19:31;;;;;;;6.63;4.10;;;;;;;;;;10386845;28;20057;-81
2023/10/16 10:24:35;;;;;;;8.77;6.28;;;;;;;;;;10381986;28;20087;-81
2023/10/16 10:29:36;;;;;;;8.18;4.93;;;;;;;;;;10382349;28;20018;-82
2023/10/16 10:34:37;;;;;;;11.48;8.85;;;;;;;;;;10388515;28;20037;-82
2023/10/16 10:39:38;;;;;;;6.07;3.60;;;;;;;;;;10370613;28;20033;-82
2023/10/16 10:44:46;;;;;;;8.65;5.50;;;;;;;;;;10372064;28;20030;-83
2023/10/16 10:49:49;;;;;;;7.55;3.92;;;;;;;;;;10374798;28;20018;-82
2023/10/16 10:54:57;;;;;;;8.32;4.25;;;;;;;;;;10382111;28;20036;-81
2023/10/16 11:05:33;;;;;;;6.95;4.03;;;;;;;;;;10419064;28;20102;-81
2023/10/16 11:10:33;;;;;;;4.88;3.72;;;;;;;;;;10415951;28;20030;-81
2023/10/16 11:15:34;;;;;;;7.30;3.45;;;;;;;;;;10394942;28;20024;-81
2023/10/16 11:20:36;;;;;;;4.78;2.90;;;;;;;;;;10384680;28;20030;-82
2023/10/16 11:25:37;;;;;;;4.95;3.08;;;;;;;;;;10382489;28;20056;-82
2023/10/16 11:30:39;;;;;;;6.38;2.65;;;;;;;;;;10377782;28;20546;-83
2023/10/16 11:35:47;;;;;;;3.78;2.33;;;;;;;;;;10375294;28;20048;-83
2023/10/16 11:40:50;;;;;;;6.65;2.30;;;;;;;;;;10374221;28;20046;-82
2023/10/16 11:45:56;;;;;;;3.97;2.28;;;;;;;;;;10373652;28;20109;-81
2023/10/16 11:51:10;;;;;;;5.25;2.83;;;;;;;;;;10389356;28;20101;-82
2023/10/16 11:56:18;;;;;;;5.30;2.80;;;;;;;;;;10372724;28;20049;-81
2023/10/16 12:01:19;;;;;;;7.22;2.92;;;;;;;;;;10446044;23;20052;-85
2023/10/16 12:06:20;;;;;;;5.13;2.60;;;;;;;;;;10430878;28;20080;-83
2023/10/16 12:11:22;;;;;;;4.70;2.30;;;;;;;;;;10426032;28;20119;-83
2023/10/16 12:16:24;;;;;;;4.68;2.55;;;;;;;;;;10426347;28;20026;-83
2023/10/16 12:21:28;;;;;;;4.95;2.22;;;;;;;;;;10425186;28;20029;-83
2023/10/16 12:26:29;;;;;;;3.67;2.33;;;;;;;;;;10441495;28;20029;-82
2023/10/16 12:31:30;;;;;;;4.35;2.20;;;;;;;;;;10446974;28;20022;-82
2023/10/16 12:36:32;;;;;;;4.35;2.28;;;;;;;;;;10441352;28;20393;-83
2023/10/16 12:41:34;;;;;;;4.72;2.50;;;;;;;;;;10426793;28;20049;-84
2023/10/16 12:46:35;;;;;;;3.75;2.10;;;;;;;;;;10428690;28;20021;-83
2023/10/16 12:51:38;;;;;;;3.92;2.05;;;;;;;;;;10425781;28;20546;-83
2023/10/16 12:56:41;;;;;;;5.38;3.22;;;;;;;;;;10431813;28;20106;-82
2023/10/16 13:01:42;;;;;;;4.53;2.17;;;;;;;;;;10451926;28;20030;-83
2023/10/16 13:06:43;;;;;;;4.63;2.13;;;;;;;;;;10451991;28;20033;-81
2023/10/16 13:11:45;;;;;;;3.45;1.83;;;;;;;;;;10422174;28;20025;-83
2023/10/16 13:16:53;;;;;;;5.45;2.20;;;;;;;;;;10420960;28;20075;-81
2023/10/16 13:21:55;;;;;;;3.97;1.70;;;;;;;;;;10432890;28;20079;-82
2023/10/16 13:26:57;;;;;;;3.72;1.70;;;;;;;;;;10425621;28;20102;-82
2023/10/16 13:32:00;;;;;;;5.55;2.00;;;;;;;;;;10423048;28;20017;-82
2023/10/16 13:37:07;;;;;;;5.32;2.80;;;;;;;;;;10427915;28;20084;-82
2023/10/16 13:42:09;;;;;;;4.18;2.47;;;;;;;;;;10422581;28;20037;-82
2023/10/16 13:47:10;;;;;;;3.15;1.92;;;;;;;;;;10425396;28;20033;-82
2023/10/16 13:52:11;;;;;;;6.65;3.15;;;;;;;;;;10425299;28;20024;-82
2023/10/16 13:57:12;;;;;;;4.55;2.40;;;;;;;;;;10426730;28;20057;-83
2023/10/16 14:02:17;;;;;;;3.22;2.10;;;;;;;;;;10426624;28;20033;-83
2023/10/16 14:07:19;;;;;;;2.42;1.63;;;;;;;;;;10435270;28;20163;-83
2023/10/16 14:12:25;;;;;;;3.40;1.80;;;;;;;;;;10442340;28;20041;-83
2023/10/16 14:17:37;;;;;;;4.80;1.92;;;;;;;;;;10455752;28;20028;-83
2023/10/16 14:22:47;;;;;;;7.30;1.80;;;;;;;;;;10458216;28;20032;-84
2023/10/16 14:27:50;;;;;;;11.70;3.95;;;;;;;;;;10452821;28;20048;-84
2023/10/16 14:32:54;;;;;;;7.20;1.92;;;;;;;;;;10453477;28;20029;-82
2023/10/16 14:37:56;;;;;;;5.90;1.98;;;;;;;;;;10453191;28;20036;-82
2023/10/16 14:42:57;;;;;;;4.80;2.20;;;;;;;;;;10454348;28;20032;-83
2023/10/16 14:47:58;;;;;;;3.17;1.52;;;;;;;;;;10447217;28;20112;-83
2023/10/16 14:53:02;;;;;;;6.13;1.85;;;;;;;;;;10430337;28;20025;-83
2023/10/16 14:58:05;;;;;;;4.05;1.80;;;;;;;;;;10425732;28;20034;-82
2023/10/16 15:03:10;;;;;;;2.75;1.83;;;;;;;;;;10428646;28;20401;-82
2023/10/16 15:08:12;;;;;;;2.42;1.35;;;;;;;;;;10429544;28;20030;-83
2023/10/16 15:13:17;;;;;;;3.75;1.98;;;;;;;;;;10428045;28;20029;-81
2023/10/16 15:18:19;;;;;;;6.35;2.40;;;;;;;;;;10425557;28;20091;-83
2023/10/16 15:23:20;;;;;;;3.67;1.90;;;;;;;;;;10424046;28;20498;-81
2023/10/16 15:28:21;;;;;;;3.47;1.90;;;;;;;;;;10424453;28;20021;-82
2023/10/16 15:33:24;;;;;;;4.35;2.45;;;;;;;;;;10424784;28;20481;-82
2023/10/16 15:38:28;;;;;;;4.32;1.83;;;;;;;;;;10430507;28;20052;-82
2023/10/16 15:43:29;;;;;;;2.47;1.63;;;;;;;;;;10434126;28;20029;-82
2023/10/16 15:48:30;;;;;;;3.67;1.85;;;;;;;;;;10427245;28;20029;-82
2023/10/16 15:53:31;;;;;;;3.80;1.90;;;;;;;;;;10427595;28;20112;-82
2023/10/16 15:58:32;;;;;;;3.83;2.60;;;;;;;;;;10427115;28;20112;-82
2023/10/16 16:03:33;;;;;;;3.15;2.38;;;;;;;;;;10428350;28;20025;-81
2023/10/16 16:08:38;;;;;;;2.13;1.55;;;;;;;;;;10425858;28;20029;-83
2023/10/16 16:13:39;;;;;;;3.75;2.15;;;;;;;;;;10423975;28;20135;-82
2023/10/16 16:18:40;;;;;;;4.38;1.88;;;;;;;;;;10422882;28;20191;-82
2023/10/16 16:23:44;;;;;;;4.18;2.38;;;;;;;;;;10427175;28;20028;-85
2023/10/16 16:28:46;;;;;;;5.05;2.60;;;;;;;;;;10430928;28;20025;-84
2023/10/16 16:33:50;;;;;;;4.53;2.40;;;;;;;;;;10426083;28;20029;-86
2023/10/16 16:38:55;;;;;;;3.55;2.50;;;;;;;;;;10420881;28;20523;-86
2023/10/16 16:44:15;;;;;;;5.20;2.70;;;;;;;;;;10424074;28;20397;-84
2023/10/16 16:49:16;;;;;;;5.07;2.47;;;;;;;;;;10425174;28;20032;-82
2023/10/16 16:54:18;;;;;;;3.83;2.30;;;;;;;;;;10420554;28;20437;-86
2023/10/16 16:59:20;;;;;;;6.53;2.55;;;;;;;;;;10417681;28;20394;-86
2023/10/16 17:04:21;;;;;;;3.75;2.50;;;;;;;;;;10421282;28;20025;-85
2023/10/16 17:09:24;;;;;;;4.60;3.08;;;;;;;;;;10430287;28;20018;-85
2023/10/16 17:14:25;;;;;;;4.18;2.95;;;;;;;;;;10430774;28;20025;-84
2023/10/16 17:19:26;;;;;;;5.18;3.00;;;;;;;;;;10432110;28;20030;-85
2023/10/16 17:24:27;;;;;;;5.05;3.63;;;;;;;;;;10427956;28;20444;-84
2023/10/16 17:29:28;;;;;;;5.18;3.45;;;;;;;;;;10431121;28;20088;-84
2023/10/16 17:34:29;;;;;;;9.40;4.32;;;;;;;;;;10436516;28;20044;-85
2023/10/16 17:39:30;;;;;;;5.35;3.20;;;;;;;;;;10433020;28;20033;-85
2023/10/16 17:44:31;;;;;;;4.95;3.47;;;;;;;;;;10438243;28;20025;-84
2023/10/16 17:49:34;;;;;;;6.40;3.45;;;;;;;;;;10434218;28;20032;-85
2023/10/16 17:54:36;;;;;;;4.30;3.13;;;;;;;;;;10430479;28;20121;-85
2023/10/16 17:59:38;;;;;;;5.00;3.50;;;;;;;;;;10499904;22;20049;-81
2023/10/16 18:04:41;;;;;;;6.03;3.67;;;;;;;;;;10382220;28;20469;-82
2023/10/16 18:09:42;;;;;;;5.57;3.42;;;;;;;;;;10389426;28;20022;-81
2023/10/16 18:14:52;;;;;;;5.05;3.80;;;;;;;;;;10388958;28;20030;-82
2023/10/16 18:19:53;;;;;;;5.22;3.65;;;;;;;;;;10419839;28;20101;-82
2023/10/16 18:24:56;;;;;;;6.68;4.78;;;;;;;;;;10404690;28;20038;-82
2023/10/16 18:30:02;;;;;;;5.38;3.80;;;;;;;;;;10384964;28;20026;-82
2023/10/16 18:35:09;;;;;;;4.97;3.75;;;;;;;;;;10382304;28;20050;-83
2023/10/16 18:46:00;;;;;;;4.88;3.60;;;;;;;;;;10389504;28;20030;-82
2023/10/16 18:51:01;;;;;;;4.97;3.78;;;;;;;;;;10387599;28;20113;-84
2023/10/16 18:56:03;;;;;;;6.20;3.80;;;;;;;;;;10397862;28;20041;-82
2023/10/16 19:01:24;;;;;;;4.90;3.60;;;;;;;;;;10418752;28;20041;-83
2023/10/16 19:06:25;;;;;;;5.13;3.92;;;;;;;;;;10411667;28;20111;-83
2023/10/16 19:11:32;;;;;;;7.15;5.85;;;;;;;;;;10394909;28;20037;-84
